Dera Ismail Khan Weather



Dera Ismail Khan's Current Weather

Temprature 26.376o clear sky

clear sky

Rain: 0 %

Min Temprature26.376o
Max Temprature26.376o
Humidity38
Wind Speed1.22 m/h
Sun Rise05:41:25
Sun Set18:48:33
Current Time: 21-Apr-2019 05:44:26
Lat/Lon: 31.83, 70.91




Dera Ismail Khan's Geo Location



Dera Ismail Khan's Weather Forecast

Time Overall Temp Min Temp Max Temp Humidity Wind Speed Rain
21-Apr-2019 (Sun)
08:00:00 clear sky 29.480 29.479 29.480 29 1.9 m/h 0 %
11:00:00 clear sky 32.450 32.450 32.450 23 1.08 m/h 0 %
14:00:00 clear sky 35.250 35.250 35.250 19 2.07 m/h 0 %
17:00:00 clear sky 36.550 36.550 36.550 17 2.91 m/h 0 %
20:00:00 clear sky 33.950 33.950 33.950 21 2.44 m/h 0 %
23:00:00 clear sky 31.480 31.480 31.480 27 1.3 m/h 0 %
22-Apr-2019 (Mon)
02:00:00 clear sky 30.370 30.370 30.370 26 2.56 m/h 0 %
05:00:00 clear sky 28.514 28.514 28.514 30 2.23 m/h 0 %
08:00:00 clear sky 30.986 30.986 30.986 26 1.5 m/h 0 %
11:00:00 clear sky 34.120 34.120 34.120 21 1.09 m/h 0 %
14:00:00 clear sky 37.215 37.215 37.215 17 2.18 m/h 0 %
17:00:00 clear sky 38.731 38.731 38.731 15 3.2 m/h 0 %
20:00:00 clear sky 35.450 35.450 35.450 20 1.89 m/h 0 %
23:00:00 clear sky 33.096 33.096 33.096 23 2.32 m/h 0 %
23-Apr-2019 (Tue)
02:00:00 overcast clouds 31.677 31.677 31.677 26 3.02 m/h 0 %
05:00:00 overcast clouds 29.926 29.926 29.926 28 1.84 m/h 0 %
08:00:00 broken clouds 32.377 32.377 32.377 23 0.94 m/h 0 %
11:00:00 broken clouds 35.750 35.750 35.750 18 0.64 m/h 0 %
14:00:00 broken clouds 38.550 38.550 38.550 15 1.95 m/h 0 %
17:00:00 scattered clouds 39.850 39.850 39.850 13 3.67 m/h 0 %
20:00:00 scattered clouds 37.428 37.428 37.428 19 0.98 m/h 0 %
23:00:00 few clouds 34.250 34.250 34.250 22 2.42 m/h 0 %
24-Apr-2019 (Wed)
02:00:00 light rain 31.782 31.782 31.782 26 3.81 m/h 13 %
05:00:00 few clouds 30.134 30.134 30.134 27 3.68 m/h 0 %
08:00:00 broken clouds 32.650 32.650 32.650 23 5.5 m/h 0 %
11:00:00 broken clouds 35.609 35.609 35.609 19 3.94 m/h 0 %
14:00:00 light rain 34.850 34.850 34.850 20 5.19 m/h 69 %
17:00:00 light rain 33.450 33.450 33.450 26 7.85 m/h 44 %
20:00:00 moderate rain 26.655 26.655 26.655 52 4.76 m/h 725 %
23:00:00 light rain 27.445 27.445 27.445 46 6.32 m/h 19 %
25-Apr-2019 (Thu)
02:00:00 scattered clouds 26.450 26.450 26.450 46 3.75 m/h 0 %
05:00:00 few clouds 25.742 25.742 25.742 48 3.19 m/h 0 %
08:00:00 clear sky 28.620 28.620 28.620 37 3.18 m/h 0 %
11:00:00 clear sky 34.190 34.190 34.190 16 4.37 m/h 0 %
14:00:00 clear sky 36.150 36.150 36.150 11 2.22 m/h 0 %
17:00:00 clear sky 36.411 36.411 36.411 13 4.77 m/h 0 %
20:00:00 clear sky 32.725 32.725 32.725 26 5.54 m/h 0 %
23:00:00 clear sky 30.543 30.543 30.543 34 2.18 m/h 0 %
26-Apr-2019 (Fri)
02:00:00 moderate rain 28.332 28.332 28.332 41 3.12 m/h 406 %
05:00:00 light rain 27.826 27.826 27.826 33 4.45 m/h 275 %

Famous Cities (60)